createdAt,value
2022-08-16T18:57:14.256Z,29.10
2022-08-16T18:59:42.356Z,29.90
2022-08-16T19:02:56.159Z,29.80
2022-08-16T19:04:58.727Z,29.70
2022-08-16T19:07:29.755Z,29.60
2022-08-16T19:10:00.982Z,29.60
2022-08-16T19:12:38.322Z,29.50
2022-08-16T19:15:13.487Z,29.50
2022-08-16T19:17:42.813Z,29.40
2022-08-16T19:20:12.714Z,29.30
2022-08-16T19:23:12.789Z,29.30
2022-08-16T19:26:24.708Z,29.30
2022-08-16T19:29:08.439Z,29.20
2022-08-16T19:31:37.940Z,29.20
2022-08-16T19:34:12.088Z,29.20
2022-08-16T19:36:40.823Z,29.10
2022-08-16T19:39:13.593Z,29.10
2022-08-16T19:41:44.130Z,29.00
2022-08-16T19:44:13.920Z,29.00
2022-08-16T19:46:44.874Z,29.00
2022-08-16T19:49:15.912Z,28.90
2022-08-16T19:51:45.098Z,28.90
2022-08-16T19:54:13.197Z,28.90
2022-08-16T19:56:41.575Z,28.90
2022-08-16T19:59:19.243Z,28.80
2022-08-16T20:01:52.000Z,28.80
2022-08-16T20:04:21.520Z,28.80
2022-08-16T20:06:49.792Z,28.70
2022-08-16T20:09:18.171Z,28.70
2022-08-16T20:11:47.550Z,28.60
2022-08-16T20:14:19.421Z,28.60
2022-08-16T20:16:57.147Z,28.60
2022-08-16T20:19:25.384Z,28.50
2022-08-16T20:21:53.656Z,28.50
2022-08-16T20:24:37.131Z,28.50
2022-08-16T20:27:07.703Z,28.50
2022-08-16T20:29:36.661Z,28.40
2022-08-16T20:32:07.878Z,28.40
2022-08-16T20:34:36.636Z,28.40
2022-08-16T20:37:06.039Z,28.30
2022-08-16T20:39:34.234Z,28.30
2022-08-16T20:42:02.436Z,28.30
2022-08-16T20:44:30.558Z,28.30
2022-08-16T20:46:58.744Z,28.20
2022-08-16T20:49:29.039Z,28.20
2022-08-16T20:51:59.514Z,28.20
2022-08-16T20:54:28.511Z,28.20
2022-08-16T20:56:56.933Z,28.10
2022-08-16T20:59:25.184Z,28.10
2022-08-16T21:01:53.682Z,28.10
2022-08-16T21:04:25.258Z,28.00
2022-08-16T21:06:55.418Z,28.00
2022-08-16T21:09:25.270Z,28.00
2022-08-16T21:11:55.137Z,27.90
2022-08-16T21:14:23.821Z,27.90
2022-08-16T21:16:52.560Z,27.90
2022-08-16T21:19:21.602Z,27.80
2022-08-16T21:21:50.245Z,27.80
2022-08-16T21:24:19.836Z,27.80
2022-08-16T21:26:55.369Z,27.80
2022-08-16T21:29:36.325Z,27.80
2022-08-16T21:32:13.250Z,27.80
2022-08-16T21:34:42.323Z,27.70
2022-08-16T21:37:10.725Z,27.70
2022-08-16T21:39:40.787Z,27.70
2022-08-16T21:42:10.940Z,27.60
2022-08-16T21:44:39.281Z,27.60
2022-08-16T21:47:08.249Z,27.60
2022-08-16T21:49:37.783Z,27.50
2022-08-16T21:52:07.225Z,27.50
2022-08-16T21:54:36.011Z,27.50
2022-08-16T21:57:10.638Z,27.50
2022-08-16T21:59:39.164Z,27.40
2022-08-16T22:02:07.859Z,27.40
2022-08-16T22:04:38.949Z,27.40
2022-08-16T22:07:08.016Z,27.30
2022-08-16T22:09:36.472Z,27.40
2022-08-16T22:12:06.733Z,27.30
2022-08-16T22:14:34.931Z,27.30
2022-08-16T22:17:03.132Z,27.20
2022-08-16T22:19:31.546Z,27.20
2022-08-16T22:22:01.649Z,27.20
2022-08-16T22:24:29.922Z,27.10
2022-08-16T22:26:58.097Z,27.10
2022-08-16T22:29:27.569Z,27.10
2022-08-16T22:31:55.825Z,27.00
2022-08-16T22:34:24.082Z,27.00
2022-08-16T22:36:53.672Z,27.00
2022-08-16T22:39:21.772Z,27.00
2022-08-16T22:41:50.443Z,26.90
2022-08-16T22:44:19.200Z,26.90
2022-08-16T22:46:48.753Z,26.90
2022-08-16T22:49:17.538Z,26.80
2022-08-16T22:51:45.710Z,26.80
2022-08-16T22:54:47.272Z,26.80
2022-08-16T22:57:02.203Z,26.70
2022-08-16T22:59:32.017Z,26.70
2022-08-16T23:02:03.978Z,26.60
2022-08-16T23:04:32.187Z,26.70
2022-08-16T23:07:00.496Z,26.60
2022-08-16T23:09:30.348Z,26.60
2022-08-16T23:12:02.663Z,26.50
2022-08-16T23:14:30.882Z,26.50
2022-08-16T23:16:58.989Z,26.50
2022-08-16T23:19:29.499Z,26.50
2022-08-16T23:21:57.984Z,26.40
2022-08-16T23:24:26.145Z,26.40
2022-08-16T23:26:54.285Z,26.40
2022-08-16T23:29:26.582Z,26.30
2022-08-16T23:31:58.259Z,26.30
2022-08-16T23:34:29.450Z,26.20
2022-08-16T23:36:58.092Z,26.20
2022-08-16T23:39:26.466Z,26.10
2022-08-16T23:41:55.621Z,26.10
2022-08-16T23:44:55.451Z,26.10
2022-08-16T23:47:12.192Z,26.00
2022-08-16T23:49:55.977Z,26.00
2022-08-16T23:52:40.489Z,26.00
2022-08-16T23:55:17.106Z,25.90
2022-08-16T23:57:46.029Z,25.90
